Time;durP1;ratioP1;P1;durP2;ratioP2;P2;SDS_P1;SDS_P2;PMS_P1;PMS_P2;Temp;Humidity;BMP_temperature;BMP_pressure;BME280_temperature;BME280_humidity;BME280_pressure;Samples;Min_cycle;Max_cycle;Signal;HPM_P1;HPM_P2
2022/04/02 00:01:12;;;;;;;23.08;16.65;;;3.10;81.30;;;;;;5064218;28;20282;-70
2022/04/02 00:03:41;;;;;;;25.58;16.40;;;3.20;81.80;;;;;;5064610;28;20208;-70
2022/04/02 00:06:10;;;;;;;22.90;17.17;;;3.20;81.80;;;;;;5044503;28;21049;-70
2022/04/02 00:08:38;;;;;;;27.90;17.95;;;3.30;81.80;;;;;;5060450;28;20196;-70
2022/04/02 00:11:07;;;;;;;24.85;17.83;;;3.30;81.90;;;;;;5057751;28;20888;-70
2022/04/02 00:13:35;;;;;;;24.45;17.45;;;3.40;81.90;;;;;;5055740;28;20204;-69
2022/04/02 00:16:04;;;;;;;29.05;18.85;;;3.50;81.70;;;;;;5057874;28;20235;-69
2022/04/02 00:18:33;;;;;;;41.20;24.70;;;3.50;81.30;;;;;;5045661;28;20277;-70
2022/04/02 00:21:02;;;;;;;28.92;18.20;;;3.50;81.50;;;;;;5056492;28;20295;-69
2022/04/02 00:23:43;;;;;;;33.90;20.88;;;3.50;81.60;;;;;;5056741;28;20235;-70
2022/04/02 00:26:14;;;;;;;28.77;18.33;;;3.50;81.50;;;;;;5057433;28;20245;-70
2022/04/02 00:28:44;;;;;;;42.28;23.55;;;3.50;81.50;;;;;;5039288;28;20215;-70
2022/04/02 00:31:13;;;;;;;30.52;19.08;;;3.50;81.40;;;;;;5053677;28;20310;-70
2022/04/02 00:33:43;;;;;;;33.80;19.52;;;3.50;81.20;;;;;;5053281;28;20204;-70
2022/04/02 00:36:14;;;;;;;30.13;18.02;;;3.40;81.00;;;;;;5056298;28;20193;-70
2022/04/02 00:38:42;;;;;;;39.03;20.85;;;3.40;81.00;;;;;;5057729;28;20269;-69
2022/04/02 00:41:12;;;;;;;39.90;19.23;;;3.30;81.10;;;;;;5058155;28;20212;-69
2022/04/02 00:43:42;;;;;;;25.02;16.38;;;3.30;81.30;;;;;;5059161;28;20856;-70
2022/04/02 00:46:13;;;;;;;31.38;17.98;;;3.40;81.40;;;;;;5037856;28;20713;-69
2022/04/02 00:48:41;;;;;;;23.23;16.38;;;3.40;81.30;;;;;;5058815;28;20200;-69
2022/04/02 00:51:15;;;;;;;19.98;12.80;;;3.50;81.50;;;;;;5056970;28;20204;-70
2022/04/02 00:53:49;;;;;;;60.53;27.52;;;3.50;81.60;;;;;;5044659;28;21101;-70
2022/04/02 00:56:18;;;;;;;33.35;18.13;;;3.50;81.20;;;;;;5059495;28;20197;-70
2022/04/02 00:58:47;;;;;;;61.97;27.55;;;3.50;81.00;;;;;;5055148;28;20213;-70
2022/04/02 01:01:17;;;;;;;29.08;17.35;;;3.40;80.80;;;;;;5051288;28;20854;-70
2022/04/02 01:03:49;;;;;;;28.27;17.25;;;3.40;80.80;;;;;;5037792;28;20204;-70
2022/04/02 01:06:23;;;;;;;52.55;23.00;;;3.30;81.00;;;;;;5055579;28;20272;-69
2022/04/02 01:08:53;;;;;;;50.33;23.90;;;3.30;81.00;;;;;;5054857;28;20196;-70
2022/04/02 01:11:22;;;;;;;26.25;16.48;;;3.30;81.20;;;;;;5040267;28;20192;-69
2022/04/02 01:13:54;;;;;;;33.88;19.40;;;3.30;81.20;;;;;;5037897;28;20199;-70
2022/04/02 01:16:22;;;;;;;30.17;16.52;;;3.30;80.90;;;;;;5056266;28;20717;-69
2022/04/02 01:18:57;;;;;;;49.72;26.20;;;3.20;80.80;;;;;;5039395;28;20223;-69
2022/04/02 01:21:29;;;;;;;49.88;24.95;;;3.10;80.90;;;;;;5036529;28;20611;-70
2022/04/02 01:24:02;;;;;;;51.53;27.95;;;3.10;81.20;;;;;;5042964;28;20203;-69
2022/04/02 01:26:32;;;;;;;44.05;24.48;;;3.20;81.20;;;;;;5055667;28;20235;-70
2022/04/02 01:29:10;;;;;;;56.03;29.90;;;3.20;81.20;;;;;;5035205;28;20220;-70
2022/04/02 01:31:45;;;;;;;45.08;23.75;;;3.10;81.10;;;;;;5037587;28;20226;-70
2022/04/02 01:34:20;;;;;;;39.20;22.58;;;3.10;81.20;;;;;;5055339;28;20721;-69
2022/04/02 01:36:50;;;;;;;25.77;17.48;;;3.10;81.30;;;;;;5053336;28;20247;-68
2022/04/02 01:39:25;;;;;;;48.83;27.63;;;3.10;81.10;;;;;;5055842;28;20876;-70
2022/04/02 01:41:53;;;;;;;52.53;27.08;;;3.10;81.20;;;;;;5036289;28;20212;-70
2022/04/02 01:44:29;;;;;;;49.83;27.00;;;3.10;81.30;;;;;;5038246;28;20203;-71
2022/04/02 01:46:57;;;;;;;41.03;23.30;;;3.10;81.30;;;;;;5038475;28;20247;-69
2022/04/02 01:49:26;;;;;;;44.38;24.52;;;3.20;81.20;;;;;;5042839;28;20204;-70
2022/04/02 01:51:56;;;;;;;36.70;20.48;;;3.20;81.40;;;;;;5043473;28;20192;-69
2022/04/02 01:54:25;;;;;;;39.28;22.75;;;3.20;81.40;;;;;;5040089;28;20934;-69
2022/04/02 01:57:03;;;;;;;22.10;14.40;;;3.30;81.50;;;;;;5043355;28;20320;-70
2022/04/02 01:59:32;;;;;;;22.55;15.98;;;3.20;81.30;;;;;;5043919;28;20235;-69
2022/04/02 02:02:00;;;;;;;38.20;18.35;;;3.30;81.20;;;;;;5039339;28;20234;-69
2022/04/02 02:04:29;;;;;;;34.08;19.40;;;3.20;81.20;;;;;;5052969;28;20288;-69
2022/04/02 02:06:56;;;;;;;30.15;17.63;;;3.20;80.90;;;;;;5056336;28;20634;-69
2022/04/02 02:09:26;;;;;;;38.00;20.30;;;3.10;81.00;;;;;;5053825;28;20235;-70
2022/04/02 02:12:14;;;;;;;31.20;17.33;;;3.00;81.30;;;;;;5056462;28;20198;-69
2022/04/02 02:14:53;;;;;;;32.97;18.35;;;2.90;81.70;;;;;;5037017;28;20208;-69
2022/04/02 02:17:21;;;;;;;31.23;17.73;;;2.90;82.10;;;;;;5049395;28;20717;-69
2022/04/02 02:19:59;;;;;;;29.55;17.83;;;2.90;81.90;;;;;;5054873;28;20897;-70
2022/04/02 02:22:27;;;;;;;24.67;16.75;;;2.90;81.90;;;;;;5035319;28;20203;-69
2022/04/02 02:24:56;;;;;;;24.75;15.82;;;2.90;81.70;;;;;;5047925;28;20211;-69
2022/04/02 02:27:25;;;;;;;32.10;19.10;;;2.80;81.90;;;;;;5038071;28;20220;-69
2022/04/02 02:29:53;;;;;;;23.27;14.57;;;2.80;81.50;;;;;;5055854;28;20199;-69
2022/04/02 02:32:23;;;;;;;34.05;19.35;;;2.80;81.60;;;;;;5036836;28;20221;-70
2022/04/02 02:37:41;;;;;;;32.00;19.23;;;2.80;81.80;;;;;;5036816;28;20599;-69
2022/04/02 02:40:12;;;;;;;22.00;13.48;;;2.80;81.60;;;;;;5033570;28;20229;-69
2022/04/02 02:42:41;;;;;;;21.33;15.25;;;2.80;81.50;;;;;;5041578;28;20211;-69
2022/04/02 02:45:29;;;;;;;33.95;18.55;;;2.80;81.60;;;;;;5034618;28;20240;-69
2022/04/02 02:48:01;;;;;;;28.40;16.90;;;2.80;81.60;;;;;;5041155;28;20220;-69
2022/04/02 02:50:50;;;;;;;19.88;11.95;;;2.80;81.60;;;;;;5034612;28;20661;-70
2022/04/02 02:53:19;;;;;;;22.15;11.45;;;2.80;81.70;;;;;;5055896;28;20208;-71
2022/04/02 02:55:50;;;;;;;21.08;12.48;;;2.70;81.60;;;;;;5037055;28;20212;-70
2022/04/02 02:58:20;;;;;;;22.13;13.48;;;2.70;81.70;;;;;;5035019;28;20772;-70
2022/04/02 03:00:49;;;;;;;25.60;12.82;;;2.70;81.60;;;;;;5053730;28;20233;-70
2022/04/02 03:03:22;;;;;;;18.48;10.70;;;2.70;81.80;;;;;;5036078;28;20297;-70
2022/04/02 03:05:52;;;;;;;19.05;10.20;;;2.60;82.00;;;;;;5033591;28;20212;-70
2022/04/02 03:08:21;;;;;;;30.50;14.52;;;2.60;81.90;;;;;;5041146;28;20290;-70
2022/04/02 03:10:58;;;;;;;24.48;13.50;;;2.50;82.10;;;;;;5045121;28;20264;-70
2022/04/02 03:13:30;;;;;;;26.92;16.33;;;2.50;82.30;;;;;;5044801;28;20201;-71
2022/04/02 03:16:05;;;;;;;20.02;13.57;;;2.50;81.90;;;;;;5052894;28;20238;-70
2022/04/02 03:18:36;;;;;;;23.23;13.80;;;2.50;82.10;;;;;;5038442;28;20228;-69
2022/04/02 03:21:09;;;;;;;28.00;16.08;;;2.50;82.00;;;;;;5040839;28;20218;-71
2022/04/02 03:23:37;;;;;;;21.38;12.98;;;2.50;82.00;;;;;;5059902;28;20204;-70
2022/04/02 03:26:07;;;;;;;23.83;14.20;;;2.50;81.90;;;;;;5052410;28;20209;-68
2022/04/02 03:28:40;;;;;;;13.02;9.38;;;2.40;82.20;;;;;;5050487;28;21032;-69
2022/04/02 03:31:08;;;;;;;21.52;12.80;;;2.40;82.10;;;;;;5067369;28;20225;-69
2022/04/02 03:33:39;;;;;;;27.38;14.85;;;2.40;82.30;;;;;;5049695;28;20196;-69
2022/04/02 03:36:10;;;;;;;17.45;11.10;;;2.50;82.30;;;;;;5057960;28;20219;-69
2022/04/02 03:38:39;;;;;;;17.00;11.30;;;2.50;82.30;;;;;;5058918;28;20285;-69
2022/04/02 03:41:15;;;;;;;16.50;9.80;;;2.50;82.10;;;;;;5042020;28;20216;-69
2022/04/02 03:43:46;;;;;;;17.77;9.35;;;2.50;82.30;;;;;;5046984;28;20204;-69
2022/04/02 03:49:05;;;;;;;25.63;13.32;;;2.40;82.70;;;;;;5045458;28;20215;-69
2022/04/02 03:51:34;;;;;;;23.42;12.18;;;2.40;82.40;;;;;;5048657;28;20210;-69
2022/04/02 03:54:08;;;;;;;18.20;8.90;;;2.40;82.60;;;;;;5040890;28;20204;-69
2022/04/02 03:56:42;;;;;;;22.45;10.98;;;2.40;82.50;;;;;;5043218;28;20227;-69
2022/04/02 03:59:13;;;;;;;13.43;9.07;;;2.40;82.60;;;;;;5044763;28;20228;-70
2022/04/02 04:01:45;;;;;;;14.73;8.80;;;2.50;82.70;;;;;;5045674;28;20278;-69
2022/04/02 04:04:15;;;;;;;17.85;9.35;;;2.50;82.50;;;;;;5040256;28;20212;-70
2022/04/02 04:06:44;;;;;;;20.92;10.48;;;2.50;82.50;;;;;;5043706;28;20316;-69
2022/04/02 04:09:13;;;;;;;26.88;12.48;;;2.50;82.40;;;;;;5038558;28;20210;-70
2022/04/02 04:11:46;;;;;;;20.67;11.35;;;2.50;82.50;;;;;;5057872;28;20188;-70
2022/04/02 04:14:14;;;;;;;28.55;13.30;;;2.50;82.40;;;;;;5039402;28;20901;-70
2022/04/02 04:16:43;;;;;;;18.02;10.35;;;2.50;82.40;;;;;;5032727;28;20239;-68
2022/04/02 04:19:11;;;;;;;18.52;10.48;;;2.40;82.30;;;;;;5044872;28;20234;-69
2022/04/02 04:21:41;;;;;;;16.67;10.43;;;2.40;82.50;;;;;;5057853;28;20323;-69
2022/04/02 04:24:11;;;;;;;17.15;11.57;;;2.30;82.40;;;;;;5056979;28;20204;-69
2022/04/02 04:26:39;;;;;;;19.00;12.60;;;2.30;82.60;;;;;;5054903;28;20228;-69
2022/04/02 04:29:10;;;;;;;19.77;12.77;;;2.30;82.60;;;;;;5045941;28;20199;-71
2022/04/02 04:31:38;;;;;;;34.05;19.50;;;2.20;82.50;;;;;;5044598;28;20889;-69
2022/04/02 04:34:06;;;;;;;22.52;13.52;;;2.20;82.60;;;;;;5056727;28;20209;-69
2022/04/02 04:36:35;;;;;;;30.55;14.93;;;2.20;82.70;;;;;;5055784;28;20228;-69
2022/04/02 04:39:05;;;;;;;20.35;11.95;;;2.10;83.10;;;;;;5045807;28;20199;-69
2022/04/02 04:41:38;;;;;;;27.83;14.10;;;2.10;83.30;;;;;;5041582;28;20232;-71
2022/04/02 04:44:08;;;;;;;35.42;17.75;;;2.00;83.40;;;;;;5059334;28;20196;-68
2022/04/02 04:46:40;;;;;;;40.92;18.40;;;2.00;83.30;;;;;;5038037;28;20246;-69
2022/04/02 04:49:11;;;;;;;35.30;18.05;;;2.10;83.20;;;;;;5038770;28;20213;-69
2022/04/02 04:51:42;;;;;;;22.67;14.10;;;2.10;83.20;;;;;;5035420;28;20304;-71
2022/04/02 04:54:11;;;;;;;22.67;13.32;;;2.10;83.00;;;;;;5039678;28;20207;-69
2022/04/02 04:56:43;;;;;;;30.33;15.38;;;2.10;82.80;;;;;;5043153;28;20612;-69
2022/04/02 04:59:16;;;;;;;29.05;14.32;;;2.10;82.80;;;;;;5041224;28;20303;-69
2022/04/02 05:01:47;;;;;;;19.98;12.52;;;2.00;82.90;;;;;;5039760;28;20228;-69
2022/04/02 05:04:16;;;;;;;32.05;15.93;;;2.00;83.00;;;;;;5042723;28;20283;-69
2022/04/02 05:06:49;;;;;;;23.83;15.20;;;2.00;83.10;;;;;;5040197;28;20231;-69
2022/04/02 05:09:19;;;;;;;32.90;17.70;;;2.00;83.00;;;;;;5044535;28;20775;-70
2022/04/02 05:11:49;;;;;;;23.05;11.13;;;2.00;82.90;;;;;;5038022;28;20204;-71
2022/04/02 05:14:20;;;;;;;30.50;17.75;;;2.10;82.90;;;;;;5033998;28;20204;-69
2022/04/02 05:16:53;;;;;;;19.65;11.50;;;2.10;82.80;;;;;;5039640;28;20266;-69
2022/04/02 05:19:25;;;;;;;23.50;11.13;;;2.10;82.70;;;;;;5037167;28;20204;-71
2022/04/02 05:21:55;;;;;;;30.05;13.55;;;2.10;82.50;;;;;;5033115;28;20232;-71
2022/04/02 05:24:23;;;;;;;16.80;11.18;;;2.00;82.40;;;;;;5039195;28;20242;-69
2022/04/02 05:26:55;;;;;;;31.25;15.07;;;2.00;82.60;;;;;;5038008;28;20228;-69
2022/04/02 05:29:25;;;;;;;24.15;12.73;;;1.90;82.50;;;;;;5043148;28;20200;-71
2022/04/02 05:31:55;;;;;;;18.27;10.82;;;1.90;82.30;;;;;;5051683;28;20220;-71
2022/04/02 05:34:23;;;;;;;23.52;12.10;;;1.80;82.40;;;;;;5053558;28;20190;-70
2022/04/02 05:36:51;;;;;;;25.77;13.88;;;1.80;82.50;;;;;;5053917;28;20607;-69
2022/04/02 05:39:19;;;;;;;23.98;12.85;;;1.80;82.70;;;;;;5037108;28;20204;-69
2022/04/02 05:41:51;;;;;;;25.23;12.45;;;1.70;82.60;;;;;;5039337;28;20700;-69
2022/04/02 05:44:19;;;;;;;22.20;12.65;;;1.80;83.30;;;;;;5036336;28;20583;-71
2022/04/02 05:46:50;;;;;;;17.05;10.52;;;1.80;83.30;;;;;;5040871;28;21150;-71
2022/04/02 05:49:38;;;;;;;22.15;10.85;;;1.80;83.00;;;;;;5032842;28;20201;-69
2022/04/02 05:52:07;;;;;;;16.95;10.35;;;1.80;83.00;;;;;;5051535;28;20197;-70
2022/04/02 05:54:35;;;;;;;15.45;9.93;;;1.80;83.00;;;;;;5036059;28;20288;-71
2022/04/02 05:57:05;;;;;;;20.38;9.73;;;1.80;82.70;;;;;;5053059;28;20224;-70
2022/04/02 05:59:34;;;;;;;14.85;9.13;;;1.80;82.80;;;;;;5054243;28;20199;-71
2022/04/02 06:02:04;;;;;;;16.52;8.85;;;1.70;83.00;;;;;;5055440;28;20809;-70
2022/04/02 06:04:32;;;;;;;24.73;12.68;;;1.70;83.10;;;;;;5056755;28;20200;-70
2022/04/02 06:07:00;;;;;;;30.38;12.98;;;1.70;82.70;;;;;;5051845;28;20224;-70
2022/04/02 06:09:28;;;;;;;13.55;8.40;;;1.80;82.70;;;;;;5054579;28;20204;-70
2022/04/02 06:11:56;;;;;;;13.43;8.80;;;1.70;82.50;;;;;;5055187;28;20208;-69
2022/04/02 06:14:24;;;;;;;18.42;9.85;;;1.70;82.50;;;;;;5056429;28;20200;-69
2022/04/02 06:16:52;;;;;;;12.55;9.10;;;1.70;82.60;;;;;;5054524;28;20239;-69
2022/04/02 06:19:21;;;;;;;12.93;9.48;;;1.70;82.50;;;;;;5057327;28;20197;-68
2022/04/02 06:21:49;;;;;;;14.63;9.13;;;1.80;82.60;;;;;;5057208;28;20235;-69
2022/04/02 06:24:17;;;;;;;16.48;9.52;;;1.80;82.30;;;;;;5057728;28;20220;-68
2022/04/02 06:26:45;;;;;;;12.52;8.38;;;1.80;82.60;;;;;;5056433;28;20252;-69
2022/04/02 06:29:13;;;;;;;16.98;10.38;;;1.90;82.30;;;;;;5056574;28;20204;-69
2022/04/02 06:31:41;;;;;;;21.20;11.77;;;1.90;82.50;;;;;;5055777;28;20346;-69
2022/04/02 06:34:11;;;;;;;16.67;9.52;;;2.00;82.60;;;;;;5041230;28;20291;-69
2022/04/02 06:36:40;;;;;;;19.90;9.40;;;2.00;82.60;;;;;;5053349;28;20316;-69
2022/04/02 06:39:09;;;;;;;15.38;9.18;;;2.10;82.50;;;;;;5053242;28;20234;-68
2022/04/02 06:41:37;;;;;;;19.02;9.20;;;2.10;82.50;;;;;;5055827;28;20200;-68
2022/04/02 06:44:07;;;;;;;16.30;9.63;;;2.20;82.20;;;;;;5037051;28;20239;-68
2022/04/02 06:46:35;;;;;;;14.93;9.77;;;2.30;82.20;;;;;;5040960;28;20231;-70
2022/04/02 06:49:03;;;;;;;12.68;9.05;;;2.40;82.50;;;;;;5053823;28;20212;-69
2022/04/02 06:51:31;;;;;;;13.55;7.90;;;2.40;82.60;;;;;;5061234;28;20901;-69
2022/04/02 06:54:00;;;;;;;14.52;9.05;;;2.50;82.40;;;;;;5063419;28;20192;-68
2022/04/02 06:56:29;;;;;;;12.90;8.10;;;2.60;81.90;;;;;;5064115;28;20260;-69
2022/04/02 06:58:57;;;;;;;13.25;8.45;;;2.60;81.70;;;;;;5064486;28;20215;-71
2022/04/02 07:01:25;;;;;;;18.52;9.52;;;2.60;81.20;;;;;;5061599;28;20224;-70
2022/04/02 07:03:54;;;;;;;16.25;9.85;;;2.50;81.10;;;;;;5055062;28;20212;-70
2022/04/02 07:06:22;;;;;;;16.58;9.10;;;2.50;80.50;;;;;;5056834;28;20217;-70
2022/04/02 07:08:50;;;;;;;13.23;8.10;;;2.40;80.40;;;;;;5056506;28;20209;-69
2022/04/02 07:11:19;;;;;;;12.32;7.20;;;2.40;81.40;;;;;;5053605;28;20219;-70
2022/04/02 07:13:47;;;;;;;16.08;7.72;;;2.40;81.30;;;;;;5056707;28;20200;-70
2022/04/02 07:16:16;;;;;;;15.18;8.27;;;2.50;81.60;;;;;;5053808;28;20240;-70
2022/04/02 07:18:45;;;;;;;12.55;7.55;;;2.50;80.70;;;;;;5040968;28;20262;-70
2022/04/02 07:21:14;;;;;;;12.77;7.78;;;2.50;81.00;;;;;;5056298;28;20678;-69
2022/04/02 07:23:46;;;;;;;49.58;21.33;;;2.50;80.80;;;;;;5052161;28;20249;-70
2022/04/02 07:26:16;;;;;;;28.60;12.80;;;2.40;80.20;;;;;;5038873;28;20236;-70
2022/04/02 07:28:45;;;;;;;42.08;19.15;;;2.40;80.40;;;;;;5055810;28;20204;-70
2022/04/02 07:31:13;;;;;;;61.88;28.08;;;2.30;79.80;;;;;;5054099;28;20227;-70
2022/04/02 07:33:41;;;;;;;19.92;9.70;;;2.30;80.60;;;;;;5053640;28;20903;-69
2022/04/02 07:36:19;;;;;;;18.50;9.95;;;2.30;79.40;;;;;;5052933;28;20201;-69
2022/04/02 07:38:59;;;;;;;24.70;13.85;;;2.30;80.80;;;;;;5052702;28;20664;-70
2022/04/02 07:41:37;;;;;;;15.77;9.52;;;2.30;80.70;;;;;;5056723;28;20235;-69
2022/04/02 07:44:21;;;;;;;17.70;8.88;;;2.40;80.60;;;;;;5051832;28;20287;-70
2022/04/02 07:46:52;;;;;;;15.52;9.80;;;2.40;80.00;;;;;;5051630;28;20231;-70
2022/04/02 07:49:21;;;;;;;22.63;11.18;;;2.40;80.10;;;;;;5034915;28;20213;-70
2022/04/02 07:51:53;;;;;;;23.17;14.80;;;2.50;79.70;;;;;;5049888;28;20216;-70
2022/04/02 07:54:23;;;;;;;21.95;11.52;;;2.50;80.50;;;;;;5037097;28;20206;-70
2022/04/02 07:56:55;;;;;;;19.13;8.85;;;2.60;80.20;;;;;;5053739;28;20232;-70
2022/04/02 07:59:32;;;;;;;19.65;9.18;;;2.50;79.50;;;;;;5054415;28;20193;-69
2022/04/02 08:02:04;;;;;;;14.65;8.73;;;2.50;79.90;;;;;;5034582;28;20952;-70
2022/04/02 08:04:32;;;;;;;14.60;8.57;;;2.40;79.40;;;;;;5055040;28;20212;-70
2022/04/02 08:07:00;;;;;;;15.45;9.50;;;2.30;79.00;;;;;;5050383;28;20717;-69
2022/04/02 08:09:31;;;;;;;16.70;9.57;;;2.30;79.30;;;;;;5051869;28;20227;-69
2022/04/02 08:12:00;;;;;;;15.68;9.85;;;2.10;79.20;;;;;;5056242;28;20204;-70
2022/04/02 08:14:30;;;;;;;14.88;9.15;;;2.20;80.20;;;;;;5058990;28;20188;-70
2022/04/02 08:17:00;;;;;;;16.42;9.15;;;2.30;79.80;;;;;;5054537;28;20245;-70
2022/04/02 08:19:29;;;;;;;18.92;10.38;;;2.30;79.50;;;;;;5038872;28;20208;-69
2022/04/02 08:21:57;;;;;;;27.70;13.75;;;2.10;79.40;;;;;;5044827;28;20265;-70
2022/04/02 08:24:26;;;;;;;19.85;10.15;;;2.10;80.20;;;;;;5036612;28;20866;-70
2022/04/02 08:27:04;;;;;;;18.77;10.10;;;2.10;80.90;;;;;;5042903;28;20224;-70
2022/04/02 08:29:58;;;;;;;22.83;10.20;;;2.20;80.50;;;;;;5043149;28;20204;-70
2022/04/02 08:32:36;;;;;;;20.08;10.00;;;2.30;80.10;;;;;;5053911;28;20216;-69
2022/04/02 08:35:07;;;;;;;19.65;10.65;;;2.20;79.50;;;;;;5056175;28;20199;-70
2022/04/02 08:38:06;;;;;;;19.48;9.70;;;2.30;80.00;;;;;;5059794;28;20267;-70
2022/04/02 08:41:17;;;;;;;20.00;11.90;;;2.40;80.00;;;;;;5054488;28;20208;-70
2022/04/02 08:44:19;;;;;;;16.52;9.70;;;2.40;79.30;;;;;;5060645;28;20228;-70
2022/04/02 08:47:10;;;;;;;17.05;10.65;;;2.30;79.40;;;;;;5058168;28;20608;-69
2022/04/02 08:49:41;;;;;;;17.52;9.63;;;2.30;79.50;;;;;;5058384;28;20306;-69
2022/04/02 08:52:35;;;;;;;16.90;9.48;;;2.30;79.70;;;;;;5057580;28;20208;-69
2022/04/02 08:55:14;;;;;;;16.63;9.60;;;2.40;79.90;;;;;;5058841;28;20203;-69
2022/04/02 08:58:09;;;;;;;20.58;11.30;;;2.50;79.30;;;;;;5043408;28;20235;-68
2022/04/02 09:00:43;;;;;;;18.00;10.90;;;2.40;78.70;;;;;;5059167;28;20592;-69
2022/04/02 09:03:43;;;;;;;23.50;11.77;;;2.40;78.80;;;;;;5057433;28;20205;-68
2022/04/02 09:06:48;;;;;;;20.40;11.80;;;2.30;78.00;;;;;;5049496;28;20216;-69
2022/04/02 09:09:33;;;;;;;21.35;10.80;;;2.30;78.40;;;;;;5053030;28;20221;-68
2022/04/02 09:12:30;;;;;;;19.42;9.82;;;2.20;78.80;;;;;;5055998;28;20212;-68
2022/04/02 09:15:09;;;;;;;19.63;11.00;;;2.30;79.30;;;;;;5058819;28;20210;-68
2022/04/02 09:17:43;;;;;;;24.17;12.32;;;2.40;79.50;;;;;;5053806;28;20235;-68
2022/04/02 09:20:29;;;;;;;22.33;12.23;;;2.50;79.40;;;;;;5058515;28;20257;-68
2022/04/02 09:23:09;;;;;;;26.65;13.93;;;2.60;79.40;;;;;;5057667;28;20200;-68
2022/04/02 09:26:12;;;;;;;21.10;11.05;;;2.70;78.40;;;;;;5058975;28;20222;-69
2022/04/02 09:28:46;;;;;;;22.75;12.48;;;2.60;78.50;;;;;;5060284;28;20326;-68
2022/04/02 09:31:47;;;;;;;25.35;11.82;;;2.70;79.10;;;;;;5056199;28;20243;-69
2022/04/02 09:34:47;;;;;;;22.23;11.00;;;2.90;79.40;;;;;;5056088;28;20188;-68
2022/04/02 09:37:30;;;;;;;17.42;9.70;;;3.00;78.90;;;;;;5053086;28;20893;-69
2022/04/02 09:40:05;;;;;;;18.75;11.38;;;3.10;79.20;;;;;;5058439;28;20204;-69
2022/04/02 09:42:38;;;;;;;18.15;10.13;;;3.20;79.20;;;;;;5058390;28;20213;-69
2022/04/02 09:45:09;;;;;;;31.42;11.32;;;3.30;78.60;;;;;;5059055;28;20220;-69
2022/04/02 09:48:15;;;;;;;18.25;10.57;;;3.30;77.50;;;;;;5038783;28;20224;-69
2022/04/02 09:50:45;;;;;;;18.42;9.65;;;3.40;78.70;;;;;;5057819;28;20752;-70
2022/04/02 09:53:22;;;;;;;13.52;8.75;;;3.50;79.20;;;;;;5056734;28;20219;-69
2022/04/02 09:55:56;;;;;;;16.88;9.00;;;3.70;77.90;;;;;;5058097;28;20201;-69
2022/04/02 09:59:05;;;;;;;17.70;9.68;;;3.70;78.60;;;;;;5054798;28;20224;-68
2022/04/02 10:01:38;;;;;;;22.02;12.73;;;3.80;78.20;;;;;;5053052;28;20318;-69
2022/04/02 10:04:30;;;;;;;22.95;12.00;;;3.80;78.20;;;;;;5059324;28;20211;-69
2022/04/02 10:07:03;;;;;;;16.63;10.43;;;3.80;76.20;;;;;;5059602;28;20735;-69
2022/04/02 10:09:36;;;;;;;24.50;13.10;;;3.70;76.90;;;;;;5050834;28;20239;-70
2022/04/02 10:12:07;;;;;;;15.20;9.30;;;3.60;76.40;;;;;;5038569;28;20211;-70
2022/04/02 10:32:34;;;;;;;17.17;11.10;;;3.50;76.50;;;;;;5047936;28;20269;-70
2022/04/02 10:35:07;;;;;;;18.23;11.55;;;3.60;76.10;;;;;;5054832;28;20201;-69
2022/04/02 10:37:49;;;;;;;22.75;12.52;;;3.70;76.40;;;;;;5054424;28;20247;-69
2022/04/02 10:40:20;;;;;;;18.55;11.50;;;3.70;75.10;;;;;;5055955;28;20195;-69
2022/04/02 10:42:53;;;;;;;28.10;15.90;;;3.70;76.00;;;;;;5053042;28;20220;-69
2022/04/02 10:45:22;;;;;;;27.35;13.60;;;3.80;76.80;;;;;;5050909;28;20209;-69
2022/04/02 10:47:58;;;;;;;29.75;15.35;;;3.90;76.10;;;;;;5054463;28;20223;-69
2022/04/02 10:50:28;;;;;;;26.40;14.75;;;4.00;75.50;;;;;;5055466;28;20203;-69
2022/04/02 10:53:01;;;;;;;33.25;15.48;;;3.90;75.30;;;;;;5050742;28;20219;-69
2022/04/02 10:55:30;;;;;;;59.38;26.67;;;3.80;74.50;;;;;;5047458;28;20201;-70
2022/04/02 10:57:59;;;;;;;20.30;12.27;;;3.80;75.20;;;;;;5028468;28;21120;-70
2022/04/02 11:00:28;;;;;;;23.48;15.85;;;3.90;75.90;;;;;;5053966;28;20949;-69
2022/04/02 11:03:03;;;;;;;20.95;14.60;;;4.10;76.40;;;;;;5053873;28;20223;-70
2022/04/02 11:05:36;;;;;;;14.57;9.85;;;4.20;75.70;;;;;;5048742;28;20916;-70
2022/04/02 11:08:06;;;;;;;16.30;11.60;;;4.30;75.20;;;;;;5054698;28;20235;-70
2022/04/02 11:11:20;;;;;;;15.20;9.90;;;4.40;74.90;;;;;;5051387;28;20246;-69
2022/04/02 11:13:52;;;;;;;16.40;10.95;;;4.30;74.00;;;;;;5051312;28;20208;-69
2022/04/02 11:16:23;;;;;;;17.25;10.38;;;4.30;74.10;;;;;;5048373;28;20249;-69
2022/04/02 11:21:59;;;;;;;13.50;9.85;;;4.30;74.90;;;;;;5029756;28;20212;-69
2022/04/02 11:24:31;;;;;;;13.88;9.25;;;4.40;74.90;;;;;;5049932;28;20196;-69
2022/04/02 11:27:02;;;;;;;15.43;11.18;;;4.50;74.60;;;;;;5051052;28;20224;-70
2022/04/02 11:29:34;;;;;;;18.25;13.02;;;4.50;74.60;;;;;;5033644;28;20197;-70
2022/04/02 11:32:03;;;;;;;14.93;10.63;;;4.60;75.00;;;;;;5049009;28;20193;-70
2022/04/02 11:34:36;;;;;;;19.55;12.45;;;4.60;74.00;;;;;;5033151;28;20211;-69
2022/04/02 11:37:07;;;;;;;16.75;13.68;;;4.60;73.90;;;;;;5050066;28;20592;-69
2022/04/02 11:39:43;;;;;;;15.35;10.63;;;4.70;74.10;;;;;;5054106;28;20201;-69
2022/04/02 11:42:15;;;;;;;16.58;9.10;;;4.70;74.40;;;;;;5032965;28;20197;-69
2022/04/02 11:44:52;;;;;;;13.60;9.90;;;4.80;74.20;;;;;;5050972;28;20739;-70
2022/04/02 11:47:27;;;;;;;15.60;9.25;;;4.80;73.50;;;;;;5052452;28;20215;-71
2022/04/02 11:50:06;;;;;;;12.07;9.15;;;4.70;72.00;;;;;;5056557;28;20214;-69
2022/04/02 11:52:50;;;;;;;12.27;9.25;;;4.60;72.00;;;;;;5053807;28;20298;-69
2022/04/02 11:55:18;;;;;;;15.20;10.18;;;4.60;73.50;;;;;;5052719;28;20218;-69
2022/04/02 11:58:04;;;;;;;15.10;9.32;;;4.60;73.20;;;;;;5055794;28;20305;-70
2022/04/02 12:00:35;;;;;;;13.15;9.18;;;4.50;72.80;;;;;;5054811;28;20212;-70
2022/04/02 12:03:05;;;;;;;12.98;8.40;;;4.50;71.90;;;;;;5053389;28;20968;-70
2022/04/02 12:05:42;;;;;;;22.48;13.13;;;4.40;71.20;;;;;;5053691;28;20234;-70
2022/04/02 12:08:11;;;;;;;17.70;10.23;;;4.50;73.20;;;;;;5053138;28;20246;-70
2022/04/02 12:10:47;;;;;;;13.82;9.13;;;4.60;73.50;;;;;;5051221;28;20208;-70
2022/04/02 12:13:16;;;;;;;16.88;9.60;;;4.70;73.60;;;;;;5050831;28;20203;-70
2022/04/02 12:16:00;;;;;;;16.40;11.15;;;4.80;72.40;;;;;;5053119;28;20312;-70
2022/04/02 12:18:29;;;;;;;23.58;14.38;;;4.80;73.00;;;;;;5052229;28;20606;-70
2022/04/02 12:21:08;;;;;;;27.25;18.27;;;4.80;73.10;;;;;;5049528;28;20203;-71
2022/04/02 12:23:37;;;;;;;19.42;11.57;;;4.90;73.50;;;;;;5039318;28;20208;-69
2022/04/02 12:26:07;;;;;;;13.48;9.23;;;5.00;73.10;;;;;;5054486;28;20207;-71
2022/04/02 12:28:45;;;;;;;11.70;9.23;;;5.10;72.70;;;;;;5053007;28;20646;-71
2022/04/02 12:31:14;;;;;;;13.27;10.15;;;5.10;72.10;;;;;;5050684;28;20211;-70
2022/04/02 12:33:51;;;;;;;16.98;9.98;;;5.00;71.90;;;;;;5055672;28;20203;-68
2022/04/02 12:36:30;;;;;;;13.25;8.48;;;5.00;72.20;;;;;;5057611;28;20196;-70
2022/04/02 12:39:02;;;;;;;13.40;8.98;;;5.00;72.10;;;;;;5054673;28;20837;-69
2022/04/02 12:41:30;;;;;;;11.75;7.80;;;4.90;70.90;;;;;;5051857;28;20204;-70
2022/04/02 12:44:00;;;;;;;14.45;8.98;;;4.80;71.00;;;;;;5049685;28;20232;-70
2022/04/02 12:46:29;;;;;;;11.90;8.82;;;4.80;71.10;;;;;;5033096;28;20774;-69
2022/04/02 12:48:59;;;;;;;25.95;12.65;;;4.80;72.10;;;;;;5052631;28;20232;-68
2022/04/02 12:51:29;;;;;;;17.58;9.45;;;4.90;72.10;;;;;;5052407;28;20662;-69
2022/04/02 12:54:00;;;;;;;10.60;7.88;;;4.80;71.00;;;;;;5048556;28;20200;-71
2022/04/02 12:56:29;;;;;;;10.73;7.28;;;4.90;71.80;;;;;;5053567;28;20184;-70
2022/04/02 12:58:59;;;;;;;14.82;10.27;;;4.90;70.10;;;;;;5051364;28;20208;-70
2022/04/02 13:01:29;;;;;;;12.40;8.65;;;4.90;70.50;;;;;;5046373;28;20208;-71
2022/04/02 13:04:09;;;;;;;12.00;9.10;;;4.80;69.60;;;;;;5048774;28;20290;-69
2022/04/02 13:06:48;;;;;;;16.58;9.45;;;4.80;71.30;;;;;;5048426;28;20224;-71
2022/04/02 13:09:17;;;;;;;16.92;9.45;;;4.90;71.60;;;;;;5035175;28;20254;-69
2022/04/02 13:11:55;;;;;;;11.27;8.48;;;5.00;70.90;;;;;;5039366;28;20208;-69
2022/04/02 13:14:24;;;;;;;11.52;8.57;;;5.00;69.80;;;;;;5051918;28;20218;-69
2022/04/02 13:16:54;;;;;;;14.40;10.10;;;5.00;70.20;;;;;;5052629;28;20235;-68
2022/04/02 13:22:13;;;;;;;11.27;8.65;;;5.10;71.10;;;;;;5053977;28;20624;-70
2022/04/02 13:25:00;;;;;;;13.35;8.80;;;5.20;70.90;;;;;;5047690;28;20203;-69
2022/04/02 13:28:11;;;;;;;10.90;7.50;;;5.20;69.40;;;;;;5033384;28;20224;-70
2022/04/02 13:30:41;;;;;;;14.13;9.55;;;5.10;70.30;;;;;;5052416;28;20822;-70
2022/04/02 13:33:54;;;;;;;14.57;8.93;;;5.10;70.00;;;;;;5057890;28;20734;-70
2022/04/02 13:36:33;;;;;;;16.70;10.10;;;5.10;68.80;;;;;;5053864;28;20560;-70
2022/04/02 13:39:09;;;;;;;14.23;8.00;;;5.10;69.90;;;;;;5058782;28;20892;-69
2022/04/02 13:41:39;;;;;;;12.43;8.18;;;5.00;68.60;;;;;;5043417;28;21324;-69